createdAt,value
2018-11-12T00:02:15.497Z,19.30
2018-11-12T00:04:42.669Z,19.67
2018-11-12T00:07:09.836Z,20.37
2018-11-12T00:09:36.989Z,19.23
2018-11-12T00:12:04.181Z,19.63
2018-11-12T00:14:31.347Z,19.27
2018-11-12T00:16:58.547Z,20.77
2018-11-12T00:19:25.748Z,18.87
2018-11-12T00:21:53.293Z,18.70
2018-11-12T00:24:20.446Z,18.07
2018-11-12T00:26:47.605Z,20.20
2018-11-12T00:29:14.795Z,19.60
2018-11-12T00:31:41.957Z,20.83
2018-11-12T00:34:09.101Z,20.07
2018-11-12T00:36:36.261Z,21.13
2018-11-12T00:39:05.802Z,20.37
2018-11-12T00:41:32.943Z,20.27
2018-11-12T00:44:00.147Z,19.63
2018-11-12T00:46:27.294Z,20.10
2018-11-12T00:48:54.462Z,19.37
2018-11-12T00:51:21.597Z,19.07
2018-11-12T00:53:48.760Z,18.93
2018-11-12T00:56:15.908Z,19.93
2018-11-12T00:58:43.147Z,19.20
2018-11-12T01:01:10.279Z,21.03
2018-11-12T01:03:37.449Z,20.57
2018-11-12T01:06:04.924Z,21.33
2018-11-12T01:08:32.071Z,20.83
2018-11-12T01:10:59.217Z,20.70
2018-11-12T01:13:26.359Z,20.37
2018-11-12T01:15:53.513Z,22.17
2018-11-12T01:18:20.696Z,21.73
2018-11-12T01:20:47.858Z,20.60
2018-11-12T01:23:14.997Z,21.17
2018-11-12T01:25:42.176Z,19.80
2018-11-12T01:28:09.382Z,20.63
2018-11-12T01:30:36.560Z,19.37
2018-11-12T01:33:04.088Z,19.57
2018-11-12T01:35:31.262Z,17.70
2018-11-12T01:37:58.435Z,17.13
2018-11-12T01:40:25.620Z,17.77
2018-11-12T01:42:52.818Z,17.23
2018-11-12T01:45:20.582Z,20.20
2018-11-12T01:47:49.060Z,19.20
2018-11-12T01:50:16.822Z,19.97
2018-11-12T01:52:44.593Z,21.13
2018-11-12T01:55:12.861Z,20.33
2018-11-12T01:57:40.056Z,22.20
2018-11-12T02:00:08.592Z,21.70
2018-11-12T02:02:35.918Z,20.93
2018-11-12T02:05:03.444Z,20.43
2018-11-12T02:07:30.456Z,19.57
2018-11-12T02:09:57.643Z,20.90
2018-11-12T02:12:24.809Z,20.10
2018-11-12T02:14:51.980Z,21.13
2018-11-12T02:17:19.158Z,21.93
2018-11-12T02:19:46.332Z,20.73
2018-11-12T02:22:13.595Z,21.17
2018-11-12T02:24:40.757Z,21.87
2018-11-12T02:27:08.090Z,21.80
2018-11-12T02:29:35.257Z,22.50
2018-11-12T02:32:02.406Z,22.10
2018-11-12T02:34:29.571Z,22.90
2018-11-12T02:36:56.745Z,25.10
2018-11-12T02:39:23.921Z,26.07
2018-11-12T02:41:51.098Z,25.87
2018-11-12T02:44:18.353Z,24.27
2018-11-12T02:46:45.510Z,23.00
2018-11-12T02:49:12.646Z,22.67
2018-11-12T02:51:39.818Z,23.80
2018-11-12T02:54:06.982Z,25.37
2018-11-12T02:56:35.927Z,24.13
2018-11-12T02:59:03.206Z,23.80
2018-11-12T03:01:30.353Z,21.20
2018-11-12T03:03:57.520Z,20.93
2018-11-12T03:06:24.736Z,20.10
2018-11-12T03:08:51.900Z,19.90
2018-11-12T03:11:19.051Z,19.10
2018-11-12T03:13:46.253Z,19.90
2018-11-12T03:16:13.773Z,19.97
2018-11-12T03:18:41.199Z,20.90
2018-11-12T03:21:08.356Z,21.20
2018-11-12T03:23:35.769Z,19.33
2018-11-12T03:26:02.932Z,21.00
2018-11-12T03:28:30.133Z,20.63
2018-11-12T03:30:57.339Z,20.70
2018-11-12T03:33:24.518Z,21.57
2018-11-12T03:35:51.681Z,21.00
2018-11-12T03:38:19.078Z,21.70
2018-11-12T03:40:46.241Z,21.63
2018-11-12T03:43:13.398Z,24.77
2018-11-12T03:45:40.572Z,23.73
2018-11-12T03:48:07.750Z,22.47
2018-11-12T03:50:34.921Z,23.63
2018-11-12T03:53:02.267Z,24.57
2018-11-12T03:55:29.480Z,24.50
2018-11-12T03:57:56.652Z,26.97
2018-11-12T04:00:30.879Z,27.03
2018-11-12T04:02:57.944Z,27.90
2018-11-12T04:05:25.234Z,28.97
2018-11-12T04:07:52.365Z,29.40
2018-11-12T04:10:20.316Z,30.40
2018-11-12T04:12:47.496Z,31.10
2018-11-12T04:15:20.377Z,28.80
2018-11-12T04:17:47.533Z,30.80
2018-11-12T04:20:17.912Z,28.43
2018-11-12T04:22:51.596Z,24.57
2018-11-12T04:25:19.041Z,26.00
2018-11-12T04:27:46.253Z,25.33
2018-11-12T04:30:14.430Z,26.03
2018-11-12T04:32:42.569Z,24.70
2018-11-12T04:35:10.249Z,24.23
2018-11-12T04:37:37.414Z,27.43
2018-11-12T04:40:05.346Z,28.60
2018-11-12T04:42:32.500Z,28.07
2018-11-12T04:44:59.722Z,27.60
2018-11-12T04:47:26.898Z,28.53
2018-11-12T04:49:54.433Z,29.47
2018-11-12T04:52:21.614Z,27.77
2018-11-12T04:54:48.797Z,27.57
2018-11-12T04:57:15.965Z,28.90
2018-11-12T04:59:43.138Z,30.67
2018-11-12T05:02:10.312Z,28.50
2018-11-12T05:04:37.465Z,27.33
2018-11-12T05:07:04.633Z,24.80
2018-11-12T05:09:31.789Z,24.37
2018-11-12T05:11:58.950Z,22.30
2018-11-12T05:14:26.108Z,24.10
2018-11-12T05:16:53.336Z,24.10
2018-11-12T05:19:20.481Z,22.37
2018-11-12T05:21:47.654Z,24.10
2018-11-12T05:24:14.809Z,23.47
2018-11-12T05:26:41.993Z,24.00
2018-11-12T05:29:09.155Z,24.33
2018-11-12T05:31:36.307Z,24.60
2018-11-12T05:34:04.030Z,25.50
2018-11-12T05:36:31.161Z,24.97
2018-11-12T05:38:58.320Z,24.67
2018-11-12T05:41:25.485Z,25.97
2018-11-12T05:43:52.625Z,26.37
2018-11-12T05:46:19.828Z,27.80
2018-11-12T05:48:46.982Z,28.40
2018-11-12T05:51:14.132Z,29.97
2018-11-12T05:53:41.284Z,27.10
2018-11-12T05:56:08.428Z,28.97
2018-11-12T05:58:35.593Z,29.83
2018-11-12T06:01:02.789Z,29.70
2018-11-12T06:03:29.961Z,29.30
2018-11-12T06:05:57.129Z,29.90
2018-11-12T06:08:24.293Z,31.90
2018-11-12T06:10:51.457Z,30.60
2018-11-12T06:13:18.590Z,28.83
2018-11-12T06:15:45.761Z,30.37
2018-11-12T06:18:12.889Z,29.43
2018-11-12T06:20:40.045Z,30.20
2018-11-12T06:23:07.185Z,30.73
2018-11-12T06:25:36.252Z,31.20
2018-11-12T06:28:03.608Z,31.37
2018-11-12T06:30:32.194Z,31.37
2018-11-12T06:32:59.505Z,31.17
2018-11-12T06:35:26.657Z,30.90
2018-11-12T06:37:54.185Z,29.57
2018-11-12T06:40:22.467Z,31.93
2018-11-12T06:42:49.795Z,30.50
2018-11-12T06:45:19.507Z,31.07
2018-11-12T06:47:47.669Z,31.40
2018-11-12T06:50:18.301Z,29.40
2018-11-12T06:52:45.503Z,32.93
2018-11-12T06:55:13.622Z,32.43
2018-11-12T06:57:41.180Z,31.43
2018-11-12T07:00:14.981Z,30.20
2018-11-12T07:02:42.193Z,31.43
2018-11-12T07:05:09.947Z,32.33
2018-11-12T07:07:37.361Z,32.47
2018-11-12T07:10:05.893Z,32.53
2018-11-12T07:12:33.056Z,33.20
2018-11-12T07:15:00.224Z,31.50
2018-11-12T07:17:27.635Z,31.30
2018-11-12T07:19:54.814Z,31.13
2018-11-12T07:22:22.607Z,31.33
2018-11-12T07:24:49.984Z,31.60
2018-11-12T07:27:17.409Z,32.33
2018-11-12T07:29:44.684Z,31.17
2018-11-12T07:32:17.781Z,33.47
2018-11-12T07:34:44.972Z,35.07
2018-11-12T07:37:12.256Z,31.37
2018-11-12T07:39:39.422Z,31.13
2018-11-12T07:42:06.649Z,32.60
2018-11-12T07:44:33.826Z,29.87
2018-11-12T07:47:00.970Z,31.00
2018-11-12T07:49:28.157Z,29.17
2018-11-12T07:51:55.297Z,30.30
2018-11-12T07:54:22.501Z,31.40
2018-11-12T07:56:49.654Z,29.67
2018-11-12T07:59:16.813Z,27.07
2018-11-12T08:01:43.961Z,28.67
2018-11-12T08:04:11.315Z,27.33
2018-11-12T08:06:38.661Z,28.93
2018-11-12T08:09:06.675Z,25.20
2018-11-12T08:11:33.720Z,24.90
2018-11-12T08:14:00.896Z,23.80
2018-11-12T08:16:28.121Z,24.77
2018-11-12T08:18:55.281Z,23.80
2018-11-12T08:21:22.457Z,21.77
2018-11-12T08:23:49.598Z,21.90
2018-11-12T08:26:16.742Z,20.73
2018-11-12T08:28:43.881Z,22.03
2018-11-12T08:31:11.025Z,21.83
2018-11-12T08:33:38.189Z,20.80
2018-11-12T08:36:05.420Z,20.93
2018-11-12T08:38:32.509Z,19.40
2018-11-12T08:40:59.735Z,18.33
2018-11-12T08:43:26.828Z,20.40
2018-11-12T08:45:54.021Z,19.93
2018-11-12T08:48:21.182Z,19.80
2018-11-12T08:50:48.317Z,19.03
2018-11-12T08:53:15.445Z,18.13
2018-11-12T08:55:42.679Z,18.00
2018-11-12T08:58:10.137Z,18.77
2018-11-12T09:00:36.929Z,17.13
2018-11-12T09:03:04.096Z,18.17
2018-11-12T09:05:31.400Z,17.57
2018-11-12T09:08:00.775Z,17.40
2018-11-12T09:10:29.358Z,17.40
2018-11-12T09:12:56.718Z,18.03
2018-11-12T09:15:23.915Z,15.97
2018-11-12T09:17:51.069Z,16.70
2018-11-12T09:20:21.365Z,15.97
2018-11-12T09:22:48.557Z,14.47
2018-11-12T09:25:17.054Z,15.10
2018-11-12T09:27:44.240Z,15.38
2018-11-12T09:30:14.426Z,14.85
2018-11-12T09:32:42.092Z,13.98
2018-11-12T09:35:11.499Z,13.45
2018-11-12T09:37:38.853Z,13.48
2018-11-12T09:40:07.973Z,13.78
2018-11-12T09:42:35.133Z,13.78
2018-11-12T09:45:02.327Z,14.47
2018-11-12T09:47:29.488Z,13.98
2018-11-12T09:49:56.633Z,12.90
2018-11-12T09:52:23.814Z,13.05
2018-11-12T09:54:51.018Z,13.55
2018-11-12T09:57:18.153Z,12.80
2018-11-12T09:59:45.309Z,13.03
2018-11-12T10:02:13.275Z,12.47
2018-11-12T10:04:41.333Z,12.78
2018-11-12T10:07:08.712Z,13.15
2018-11-12T10:09:35.641Z,13.28
2018-11-12T10:12:02.968Z,12.80
2018-11-12T10:14:31.141Z,13.32
2018-11-12T10:16:58.868Z,13.10
2018-11-12T10:19:22.711Z,13.22
2018-11-12T10:21:49.905Z,13.38
2018-11-12T10:24:17.098Z,14.33
2018-11-12T10:26:44.269Z,13.53
2018-11-12T10:29:11.445Z,13.05
2018-11-12T10:31:38.608Z,13.15
2018-11-12T10:34:05.863Z,13.93
2018-11-12T10:36:33.009Z,12.88
2018-11-12T10:39:00.180Z,12.60
2018-11-12T10:41:27.373Z,12.43
2018-11-12T10:43:54.585Z,13.03
2018-11-12T10:46:21.765Z,13.05
2018-11-12T10:48:48.923Z,12.37
2018-11-12T10:51:16.150Z,12.80
2018-11-12T10:53:50.042Z,12.58
2018-11-12T10:56:10.568Z,13.88
2018-11-12T10:58:37.726Z,12.00
2018-11-12T11:01:10.549Z,12.95
2018-11-12T11:03:43.570Z,11.85
2018-11-12T11:06:10.768Z,12.10
2018-11-12T11:08:37.957Z,10.72
2018-11-12T11:11:05.161Z,11.65
2018-11-12T11:13:32.325Z,11.03
2018-11-12T11:15:59.518Z,10.65
2018-11-12T11:18:26.698Z,12.00
2018-11-12T11:20:53.876Z,11.85
2018-11-12T11:23:21.021Z,11.80
2018-11-12T11:25:48.211Z,10.72
2018-11-12T11:28:15.382Z,11.35
2018-11-12T11:30:42.553Z,10.63
2018-11-12T11:33:09.726Z,10.48
2018-11-12T11:35:36.900Z,10.78
2018-11-12T11:38:04.137Z,9.33
2018-11-12T11:40:31.305Z,9.90
2018-11-12T11:42:58.485Z,10.03
2018-11-12T11:45:25.665Z,9.08
2018-11-12T11:47:53.572Z,9.28
2018-11-12T11:50:22.137Z,8.68
2018-11-12T11:52:49.214Z,9.00
2018-11-12T11:55:18.666Z,8.10
2018-11-12T11:57:46.292Z,8.28
2018-11-12T12:00:15.117Z,8.20
2018-11-12T12:02:43.087Z,7.58
2018-11-12T12:05:11.576Z,8.30
2018-11-12T12:07:38.794Z,7.65
2018-11-12T12:10:06.481Z,8.00
2018-11-12T12:12:33.664Z,7.70
2018-11-12T12:15:01.097Z,7.83
2018-11-12T12:17:28.288Z,7.35
2018-11-12T12:19:55.517Z,7.42
2018-11-12T12:22:22.618Z,6.80
2018-11-12T12:24:49.806Z,7.00
2018-11-12T12:27:16.989Z,7.20
2018-11-12T12:29:44.165Z,6.42
2018-11-12T12:32:11.347Z,7.12
2018-11-12T12:34:38.547Z,7.20
2018-11-12T12:37:05.729Z,6.80
2018-11-12T12:39:32.913Z,7.20
2018-11-12T12:42:00.132Z,6.95
2018-11-12T12:44:27.347Z,7.28
2018-11-12T12:46:54.501Z,7.65
2018-11-12T12:49:21.678Z,7.10
2018-11-12T12:51:48.865Z,6.90
2018-11-12T12:54:16.025Z,6.62
2018-11-12T12:56:43.193Z,7.28
2018-11-12T12:59:10.364Z,6.50
2018-11-12T13:01:37.624Z,6.75
2018-11-12T13:04:04.834Z,6.67
2018-11-12T13:06:32.078Z,6.33
2018-11-12T13:08:59.209Z,6.12
2018-11-12T13:11:26.405Z,7.12
2018-11-12T13:13:53.660Z,6.97
2018-11-12T13:16:20.817Z,6.87
2018-11-12T13:18:48.001Z,6.25
2018-11-12T13:21:15.225Z,6.10
2018-11-12T13:23:42.382Z,6.35
2018-11-12T13:26:09.585Z,5.53
2018-11-12T13:28:36.826Z,6.10
2018-11-12T13:31:04.209Z,6.33
2018-11-12T13:33:31.404Z,6.47
2018-11-12T13:35:58.557Z,6.08
2018-11-12T13:38:25.747Z,5.85
2018-11-12T13:40:52.897Z,6.33
2018-11-12T13:43:20.085Z,6.20
2018-11-12T13:45:47.239Z,6.25
2018-11-12T13:48:14.397Z,6.60
2018-11-12T13:50:41.546Z,5.92
2018-11-12T13:53:08.808Z,6.37
2018-11-12T13:55:35.928Z,5.80
2018-11-12T13:58:03.166Z,5.67
2018-11-12T14:00:30.941Z,6.22
2018-11-12T14:02:58.528Z,6.05
2018-11-12T14:05:26.384Z,6.50
2018-11-12T14:07:53.599Z,5.80
2018-11-12T14:10:22.137Z,6.20
2018-11-12T14:12:50.094Z,7.05
2018-11-12T14:15:18.259Z,7.25
2018-11-12T14:17:45.813Z,7.40
2018-11-12T14:20:13.193Z,7.42
2018-11-12T14:22:40.325Z,7.53
2018-11-12T14:25:08.208Z,7.75
2018-11-12T14:27:35.581Z,6.97
2018-11-12T14:30:02.749Z,6.72
2018-11-12T14:32:30.502Z,7.28
2018-11-12T14:34:57.692Z,7.12
2018-11-12T14:37:24.905Z,7.08
2018-11-12T14:39:52.094Z,6.92
2018-11-12T14:42:19.307Z,6.50
2018-11-12T14:44:46.472Z,6.70
2018-11-12T14:47:13.658Z,6.45
2018-11-12T14:49:40.857Z,7.62
2018-11-12T14:52:08.069Z,7.10
2018-11-12T14:54:35.477Z,6.62
2018-11-12T14:57:02.701Z,7.55
2018-11-12T14:59:29.897Z,6.05
2018-11-12T15:01:57.029Z,6.50
2018-11-12T15:04:24.213Z,6.53
2018-11-12T15:06:51.414Z,7.15
2018-11-12T15:09:18.585Z,6.72
2018-11-12T15:11:45.747Z,6.58
2018-11-12T15:14:12.965Z,6.75
2018-11-12T15:16:40.239Z,6.75
2018-11-12T15:19:07.949Z,6.42
2018-11-12T15:21:35.267Z,6.05
2018-11-12T15:24:02.433Z,6.70
2018-11-12T15:26:29.884Z,7.30
2018-11-12T15:28:57.551Z,6.87
2018-11-12T15:31:24.724Z,6.05
2018-11-12T15:33:51.885Z,6.50
2018-11-12T15:36:19.150Z,6.33
2018-11-12T15:38:46.393Z,6.55
2018-11-12T15:41:13.565Z,6.70
2018-11-12T15:43:40.723Z,6.62
2018-11-12T15:46:07.909Z,6.57
2018-11-12T15:48:35.216Z,6.97
2018-11-12T15:51:02.466Z,7.80
2018-11-12T15:53:29.593Z,7.03
2018-11-12T15:55:56.755Z,7.00
2018-11-12T15:58:24.000Z,8.10
2018-11-12T16:00:51.101Z,7.20
2018-11-12T16:03:18.285Z,16.97
2018-11-12T16:05:45.481Z,11.30
2018-11-12T16:08:12.608Z,9.57
2018-11-12T16:10:39.771Z,8.83
2018-11-12T16:13:06.962Z,9.00
2018-11-12T16:15:34.140Z,9.67
2018-11-12T16:18:01.292Z,9.80
2018-11-12T16:20:29.225Z,9.00
2018-11-12T16:22:57.397Z,11.27
2018-11-12T16:25:25.208Z,12.77
2018-11-12T16:27:52.361Z,16.05
2018-11-12T16:30:19.532Z,19.07
2018-11-12T16:32:47.136Z,18.00
2018-11-12T16:35:15.803Z,17.27
2018-11-12T16:37:44.667Z,16.83
2018-11-12T16:40:11.868Z,25.53
2018-11-12T16:42:40.024Z,35.30
2018-11-12T16:45:07.225Z,18.57
2018-11-12T16:47:34.405Z,16.07
2018-11-12T16:50:01.658Z,12.77
2018-11-12T16:52:28.841Z,16.03
2018-11-12T16:54:56.013Z,15.80
2018-11-12T16:57:23.184Z,16.90
2018-11-12T16:59:50.376Z,19.83
2018-11-12T17:02:17.573Z,13.40
2018-11-12T17:04:44.789Z,13.27
2018-11-12T17:07:11.977Z,13.17
2018-11-12T17:09:39.276Z,12.40
2018-11-12T17:12:06.544Z,16.50
2018-11-12T17:14:33.760Z,13.27
2018-11-12T17:17:01.001Z,17.20
2018-11-12T17:19:28.222Z,18.37
2018-11-12T17:21:55.449Z,19.40
2018-11-12T17:24:22.641Z,20.23
2018-11-12T17:26:49.851Z,19.17
2018-11-12T17:29:17.084Z,32.57
2018-11-12T17:31:44.392Z,24.87
2018-11-12T17:34:11.640Z,22.30
2018-11-12T17:36:38.938Z,23.43
2018-11-12T17:39:06.314Z,23.90
2018-11-12T17:41:33.556Z,27.43
2018-11-12T17:44:00.719Z,21.20
2018-11-12T17:46:27.873Z,27.37
2018-11-12T17:48:55.057Z,33.70
2018-11-12T17:51:22.252Z,42.63
2018-11-12T17:53:49.447Z,37.27
2018-11-12T17:56:16.721Z,33.07
2018-11-12T17:58:43.924Z,39.60
2018-11-12T18:01:11.092Z,21.80
2018-11-12T18:03:38.252Z,16.03
2018-11-12T18:06:05.650Z,23.83
2018-11-12T18:08:32.844Z,22.17
2018-11-12T18:11:00.001Z,20.40
2018-11-12T18:13:27.189Z,21.50
2018-11-12T18:15:54.370Z,22.83
2018-11-12T18:18:21.552Z,23.30
2018-11-12T18:20:48.747Z,23.67
2018-11-12T18:23:15.947Z,25.20
2018-11-12T18:25:43.109Z,28.07
2018-11-12T18:28:10.314Z,29.63
2018-11-12T18:30:37.702Z,40.07
2018-11-12T18:33:05.024Z,40.50
2018-11-12T18:35:32.253Z,39.40
2018-11-12T18:37:59.453Z,39.73
2018-11-12T18:40:28.301Z,39.90
2018-11-12T18:42:55.477Z,39.47
2018-11-12T18:45:23.984Z,39.53
2018-11-12T18:47:51.209Z,43.00
2018-11-12T18:50:20.171Z,41.23
2018-11-12T18:52:47.473Z,32.87
2018-11-12T18:55:14.657Z,22.70
2018-11-12T18:57:42.609Z,23.00
2018-11-12T19:00:10.717Z,21.67
2018-11-12T19:02:38.176Z,23.00
2018-11-12T19:05:07.359Z,23.13
2018-11-12T19:07:34.537Z,20.87
2018-11-12T19:10:01.746Z,20.30
2018-11-12T19:12:28.940Z,21.33
2018-11-12T19:14:56.142Z,22.97
2018-11-12T19:17:23.300Z,24.33
2018-11-12T19:19:50.476Z,20.30
2018-11-12T19:22:17.651Z,19.93
2018-11-12T19:24:44.814Z,16.83
2018-11-12T19:27:12.076Z,15.73
2018-11-12T19:29:39.192Z,15.70
2018-11-12T19:32:06.470Z,15.00
2018-11-12T19:34:33.716Z,15.17
2018-11-12T19:37:00.945Z,16.03
2018-11-12T19:39:28.124Z,14.90
2018-11-12T19:41:55.314Z,15.10
2018-11-12T19:44:22.485Z,14.50
2018-11-12T19:46:49.672Z,15.80
2018-11-12T19:49:16.924Z,14.97
2018-11-12T19:51:44.172Z,14.17
2018-11-12T19:54:11.403Z,15.57
2018-11-12T19:56:38.587Z,14.60
2018-11-12T19:59:05.879Z,14.70
2018-11-12T20:01:33.027Z,14.07
2018-11-12T20:04:00.212Z,14.20
2018-11-12T20:06:27.404Z,15.30
2018-11-12T20:08:54.583Z,15.57
2018-11-12T20:11:21.804Z,15.87
2018-11-12T20:13:48.980Z,16.13
2018-11-12T20:16:16.209Z,16.03
2018-11-12T20:18:43.425Z,16.87
2018-11-12T20:21:10.601Z,15.13
2018-11-12T20:23:37.783Z,16.47
2018-11-12T20:26:04.966Z,16.73
2018-11-12T20:28:32.152Z,16.40
2018-11-12T20:30:59.393Z,15.50
2018-11-12T20:33:26.572Z,16.60
2018-11-12T20:35:53.733Z,16.90
2018-11-12T20:38:20.936Z,15.70
2018-11-12T20:40:48.098Z,16.20
2018-11-12T20:43:15.269Z,17.77
2018-11-12T20:45:42.490Z,16.30
2018-11-12T20:48:09.812Z,17.97
2018-11-12T20:50:36.980Z,18.17
2018-11-12T20:53:04.470Z,17.30
2018-11-12T20:55:31.678Z,17.03
2018-11-12T20:57:58.830Z,18.63
2018-11-12T21:00:27.179Z,18.00
2018-11-12T21:02:54.850Z,19.10
2018-11-12T21:05:23.443Z,18.20
2018-11-12T21:07:50.729Z,16.47
2018-11-12T21:10:18.476Z,16.63
2018-11-12T21:12:46.375Z,17.27
2018-11-12T21:15:14.557Z,17.07
2018-11-12T21:17:41.992Z,18.90
2018-11-12T21:20:10.679Z,20.23
2018-11-12T21:22:37.885Z,19.10
2018-11-12T21:25:06.742Z,18.47
2018-11-12T21:27:33.921Z,16.90
2018-11-12T21:30:01.176Z,18.13
2018-11-12T21:32:28.357Z,17.83
2018-11-12T21:34:55.514Z,17.50
2018-11-12T21:37:22.702Z,17.53
2018-11-12T21:39:49.915Z,19.17
2018-11-12T21:42:17.099Z,17.60
2018-11-12T21:44:44.312Z,17.57
2018-11-12T21:47:11.485Z,17.83
2018-11-12T21:49:38.666Z,18.30
2018-11-12T21:52:05.849Z,16.77
2018-11-12T21:54:33.017Z,17.37
2018-11-12T21:57:00.185Z,17.10
2018-11-12T21:59:27.446Z,16.20
2018-11-12T22:02:13.793Z,16.70
2018-11-12T22:04:40.971Z,16.03
2018-11-12T22:07:08.118Z,15.73
2018-11-12T22:09:35.277Z,16.33
2018-11-12T22:12:02.441Z,15.10
2018-11-12T22:14:29.640Z,16.67
2018-11-12T22:16:56.813Z,15.63
2018-11-12T22:19:24.106Z,14.60
2018-11-12T22:21:51.149Z,14.77
2018-11-12T22:24:18.317Z,14.33
2018-11-12T22:26:45.484Z,15.50
2018-11-12T22:29:12.666Z,14.33
2018-11-12T22:31:39.833Z,15.03
2018-11-12T22:34:07.073Z,14.97
2018-11-12T22:36:34.282Z,16.13
2018-11-12T22:39:01.590Z,15.87
2018-11-12T22:41:28.781Z,16.30
2018-11-12T22:43:56.005Z,17.50
2018-11-12T22:46:23.187Z,15.67
2018-11-12T22:48:50.368Z,15.53
2018-11-12T22:51:17.544Z,17.20
2018-11-12T22:53:44.730Z,16.47
2018-11-12T22:56:11.922Z,16.20
2018-11-12T22:58:39.078Z,14.83
2018-11-12T23:01:06.318Z,15.53
2018-11-12T23:03:33.526Z,14.53
2018-11-12T23:06:06.485Z,14.97
2018-11-12T23:08:33.715Z,13.67
2018-11-12T23:11:00.920Z,14.57
2018-11-12T23:13:28.124Z,13.57
2018-11-12T23:15:55.318Z,12.80
2018-11-12T23:18:22.475Z,13.47
2018-11-12T23:20:49.664Z,13.80
2018-11-12T23:23:16.967Z,13.33
2018-11-12T23:25:44.136Z,14.10
2018-11-12T23:28:11.295Z,13.93
2018-11-12T23:30:38.541Z,13.93
2018-11-12T23:33:05.693Z,13.90
2018-11-12T23:35:32.903Z,13.33
2018-11-12T23:38:00.085Z,14.57
2018-11-12T23:40:27.273Z,15.47
2018-11-12T23:42:54.440Z,15.33
2018-11-12T23:45:21.615Z,14.97
2018-11-12T23:47:48.762Z,15.53
2018-11-12T23:50:18.067Z,15.67
2018-11-12T23:52:46.133Z,15.53
2018-11-12T23:55:13.620Z,16.13
2018-11-12T23:57:40.809Z,16.33
